Pocahontas, MS (39072)

8:06 AM CDT on April 28, 2017 (GMT -0500)
Flora | | Change Station

Elev 292 ft 32.51 °N, 90.25 °W | Updated 7 seconds ago

Overcast
Overcast
71.4 °F
Feels Like 74 °F
N
4.0
Wind Variable Wind from SE
Gusts 4.9 mph

Today
High -- | Low -- °F
--% Chance of Precip.
Yesterday
High -- | Low -- °F
Precip. -- in
Pressure 29.84 in
Visibility 5.0 miles
Clouds Scattered Clouds 1000 ft
Overcast 4200 ft
Heat Index 74 °F
Dew Point 62 °F
Humidity 72%
Rainfall 0.00 in
Snow Depth Not available.
6:17 AM 7:40 PM
Waxing Crescent, 6% visible
SPECI KHKS 281302Z 12006KT 5SM BR SCT010 OVC042 21/19 A2984 RMK AO2 T02060194
Pressure 29.84 in
Visibility 5.0 miles
Clouds Scattered Clouds 1000 ft
Overcast 4200 ft
Heat Index 74 °F
Dew Point 62 °F
Humidity 72%
Rainfall 0.00 in
Snow Depth Not available.
6:17 AM 7:40 PM
Waxing Crescent, 6% visible
SPECI KHKS 281302Z 12006KT 5SM BR SCT010 OVC042 21/19 A2984 RMK AO2 T02060194

Get Severe Weather Alerts

Thanks for signing up!

Be on the lookout for a verification email in your inbox.

You'll start receiving the daily forecast at 8 AM.

×

10-Day Weather Forecast

Almanac

Astronomy

Apr. 28, 2017 Rise Set
Actual Time
Civil Twilight
Nautical Twilight
Astronomical Twilight
Moon
Length of Visible Light
Length of Day
Tomorrow will be .
, % of the Moon is Illuminated

Today's Extremes

State Highs State Lows

Community

WunderPhotos

WunderBlog® & News

Nearby

Air Quality

  Air Quality AQ Index Pollutant
Not available.

Snow Depth

Station Depth Elevation

Earthquake Activity

City Distance Mag. Time & Date
Minimum magnitude displayed is 2.5.

Coastal Water Temperatures

Place Temperature

Stations

Nearby Weather Stations

Station Location Temp. Windchill Dew Point Humidity Wind Precip. Elev Updated Type
                   

Watches & Warnings

There are currently no watches in effect.